MZU weather

Muzaffarpur Airport
Bihar, India

Public forecast

Using degrees Celsius for public forecast. Weather courtesy of forecast.io.

METAR (pilot weather report)

Closest report is Lok Nayak Jayaprakash Airport, 34.0 nm (62.9 km) SSW. Retrieved 2018/05/21 08:30 UTC (12 minutes ago):

VEPT 210830Z 11006KT 4000 HZ SCT025 SCT100 37/25 Q1002 NOSIG

TAF (pilot weather forecast)

Forecast is more than 6 hours old.

Closest forecast is Lok Nayak Jayaprakash Airport, 34.0 nm (62.9 km) SSW. Retrieved 2018/05/21 00:12 UTC (8 hours ago):

TAF VEPT 202300Z 2100/2206 09005KT 3000 HZ SCT100 BECMG 2104/2106 10010KT 4000 HZ BECMG 2108/2110 5000 HZ BECMG 2114/2115 05005KT 4000 HZ SCT020 BKN100 BECMG 2123/2201 09010KT 3000 HZ BECMG 2204/2206 4000 HZ/-TSRA SCT018 FEW030CB BKN100